首页
METAR-TAF:

METAR-TAF

机场 :

克羅托內, 意大利

纬度: 39-00N, 经度: 017-04E, 海拔: 155米

当前天气观测

该预报发布于7小时和43分钟前的17:50 UTC
风速4节,风向西转西南
温度 20°C
湿度 83%
气压 1017 hPa
能见度10公里或以上
1500米以下无云,无积雨云

METAR: LIBC 161750Z 24004KT CAVOK 20/17 Q1017

时间: 03:33 (01:33 UTC)

预报

该预报发布于14小时和33分钟前的11:00 UTC
预报有效从16日的 12点(UTC)到 17日的 12点(UTC)
风速6节,风向多变
能见度10公里或以上
少量云层高于3000英尺
短暂存在
从 16日的 12点(UTC)到 16日的 16点(UTC)
能見度: 4000
阵雨

TAF: LIBC 161100Z 1612/1712 VRB06KT 9999 FEW030 TEMPO 1612/1616 4000 SHRA

超过4000个机场的气象观测和天气预报(METAR&TAF报告)。

可查询的气象台以黄色和红色小点在地图上表示。

将鼠标移到小点上方,可查看气象台名称。

然后点击查看天气观测和预报。

如需切换地图:点击带黑十字的绿色按钮放大地图;点击带横线的绿色按钮缩小地图;或者点击绿色箭头查看邻近地区的地图。


METAR-TAF: